WJA2468 CYYJ-MKJS
Flight info
| Callsign | WJA2468 |
|---|---|
| Flight time | N/A |
| Altitude | 37000 |
| Route | CYYJ IMUSO ALONA YVR CFDDH SHUKA CASCD TWISP FINUT WEDAK WAIDE MOCTU CUGGA DULSE DPATY BFMCE YENNE VARCA ADSEL LENAR MKJS |
| Aircraft | B738/M-V/N |
Departure
| Time | 2026-05-01 14:25 |
|---|---|
| Airport | Victoria International Airport (CYYJ) |
Arrival
| Time | N/A |
|---|---|
| Airport | Sangster International Airport (MKJS) |
| Time | Latitude | Longitude | Altitude | Speed | Heading |
|---|---|---|---|---|---|
| 2026-05-01 14:09 | 48.64098 | -123.42907 | 58 ft | 0 kts | 186° |
| 2026-05-01 14:13 | 48.64107 | -123.42906 | 50 ft | 2 kts | 186° |
| 2026-05-01 14:13 | 48.64124 | -123.42903 | 54 ft | 2 kts | 186° |
| 2026-05-01 14:14 | 48.64139 | -123.42900 | 53 ft | 2 kts | 186° |
| 2026-05-01 14:14 | 48.64156 | -123.42898 | 56 ft | 2 kts | 186° |
| 2026-05-01 14:14 | 48.64171 | -123.42895 | 51 ft | 0 kts | 186° |
| 2026-05-01 14:17 | 48.64170 | -123.42895 | 51 ft | 1 kts | 186° |
| 2026-05-01 14:17 | 48.64155 | -123.42873 | 54 ft | 6 kts | 98° |
| 2026-05-01 14:18 | 48.64147 | -123.42746 | 56 ft | 14 kts | 101° |
| 2026-05-01 14:18 | 48.64135 | -123.42626 | 55 ft | 12 kts | 98° |
| 2026-05-01 14:18 | 48.64123 | -123.42510 | 57 ft | 12 kts | 94° |
| 2026-05-01 14:18 | 48.64153 | -123.42449 | 56 ft | 11 kts | 31° |
| 2026-05-01 14:19 | 48.64249 | -123.42401 | 60 ft | 11 kts | 9° |
| 2026-05-01 14:19 | 48.64324 | -123.42381 | 62 ft | 11 kts | 15° |
| 2026-05-01 14:19 | 48.64395 | -123.42349 | 58 ft | 10 kts | 16° |
| 2026-05-01 14:19 | 48.64464 | -123.42319 | 62 ft | 10 kts | 16° |
| 2026-05-01 14:20 | 48.64531 | -123.42290 | 62 ft | 10 kts | 16° |
| 2026-05-01 14:20 | 48.64657 | -123.42222 | 59 ft | 9 kts | 33° |
| 2026-05-01 14:20 | 48.64701 | -123.42163 | 67 ft | 9 kts | 48° |
| 2026-05-01 14:21 | 48.64709 | -123.42079 | 70 ft | 9 kts | 106° |
| 2026-05-01 14:21 | 48.64691 | -123.41988 | 64 ft | 9 kts | 105° |
| 2026-05-01 14:21 | 48.64675 | -123.41902 | 62 ft | 8 kts | 105° |
| 2026-05-01 14:22 | 48.64646 | -123.41745 | 66 ft | 8 kts | 106° |
| 2026-05-01 14:22 | 48.64631 | -123.41666 | 65 ft | 8 kts | 105° |
| 2026-05-01 14:22 | 48.64614 | -123.41571 | 67 ft | 11 kts | 104° |
| 2026-05-01 14:22 | 48.64590 | -123.41446 | 63 ft | 13 kts | 107° |
| 2026-05-01 14:23 | 48.64567 | -123.41324 | 59 ft | 11 kts | 104° |
| 2026-05-01 14:23 | 48.64594 | -123.41237 | 60 ft | 11 kts | 26° |
| 2026-05-01 14:23 | 48.64643 | -123.41234 | 64 ft | 10 kts | 340° |
| 2026-05-01 14:23 | 48.64689 | -123.41354 | 66 ft | 10 kts | 287° |
| 2026-05-01 14:24 | 48.64704 | -123.41436 | 63 ft | 24 kts | 286° |
| 2026-05-01 14:24 | 48.64824 | -123.42066 | 60 ft | 99 kts | 286° |
| 2026-05-01 14:24 | 48.65181 | -123.43948 | 66 ft | 179 kts | 286° |
| 2026-05-01 14:24 | 48.65425 | -123.45238 | 260 ft | 200 kts | 285° |
| 2026-05-01 14:25 | 48.65822 | -123.47357 | 803 ft | 213 kts | 286° |
| 2026-05-01 14:25 | 48.66250 | -123.49556 | 1563 ft | 221 kts | 287° |
| 2026-05-01 14:25 | 48.66855 | -123.51706 | 2272 ft | 229 kts | 302° |
| 2026-05-01 14:25 | 48.67862 | -123.53613 | 2954 ft | 240 kts | 320° |
| 2026-05-01 14:26 | 48.69170 | -123.55244 | 3740 ft | 250 kts | 321° |
| 2026-05-01 14:26 | 48.72025 | -123.58534 | 5433 ft | 264 kts | 322° |
| 2026-05-01 14:26 | 48.73480 | -123.60172 | 6306 ft | 268 kts | 322° |
| 2026-05-01 14:27 | 48.74987 | -123.61852 | 7133 ft | 271 kts | 322° |
| 2026-05-01 14:27 | 48.76497 | -123.63519 | 7967 ft | 272 kts | 322° |
| 2026-05-01 14:27 | 48.78060 | -123.65228 | 8847 ft | 273 kts | 322° |
| 2026-05-01 14:28 | 48.81432 | -123.67695 | 10449 ft | 277 kts | 352° |
| 2026-05-01 14:28 | 48.83333 | -123.67441 | 11040 ft | 284 kts | 22° |
| 2026-05-01 14:28 | 48.85041 | -123.65931 | 11677 ft | 286 kts | 34° |
| 2026-05-01 14:28 | 48.86688 | -123.64198 | 12321 ft | 289 kts | 35° |
| 2026-05-01 14:29 | 48.88327 | -123.62433 | 12969 ft | 291 kts | 38° |
| 2026-05-01 14:29 | 48.89743 | -123.60193 | 13586 ft | 292 kts | 54° |
| 2026-05-01 14:30 | 48.93017 | -123.52246 | 14877 ft | 308 kts | 60° |
| 2026-05-01 14:30 | 48.94122 | -123.49428 | 15113 ft | 317 kts | 60° |
| 2026-05-01 14:30 | 48.95284 | -123.46450 | 15332 ft | 329 kts | 60° |
| 2026-05-01 14:31 | 48.97595 | -123.40495 | 15769 ft | 349 kts | 60° |
| 2026-05-01 14:31 | 48.98860 | -123.37222 | 15973 ft | 360 kts | 60° |
| 2026-05-01 14:31 | 49.00130 | -123.33926 | 16200 ft | 370 kts | 60° |
| 2026-05-01 14:31 | 49.01445 | -123.30508 | 16418 ft | 380 kts | 60° |
| 2026-05-01 14:32 | 49.02799 | -123.26979 | 16636 ft | 390 kts | 60° |
| 2026-05-01 14:32 | 49.04179 | -123.23375 | 16853 ft | 399 kts | 60° |
| 2026-05-01 14:32 | 49.05600 | -123.19658 | 17061 ft | 408 kts | 60° |
| 2026-05-01 14:32 | 49.07035 | -123.15899 | 17283 ft | 417 kts | 60° |
| 2026-05-01 14:33 | 49.08511 | -123.12028 | 17503 ft | 425 kts | 60° |
| 2026-05-01 14:33 | 49.09875 | -123.07981 | 17676 ft | 432 kts | 73° |
| 2026-05-01 14:33 | 49.10317 | -123.03503 | 17892 ft | 433 kts | 95° |
| 2026-05-01 14:33 | 49.09715 | -122.99114 | 18147 ft | 433 kts | 113° |
| 2026-05-01 14:34 | 49.08558 | -122.94997 | 18379 ft | 436 kts | 117° |
| 2026-05-01 14:34 | 49.07244 | -122.90734 | 18553 ft | 442 kts | 118° |
| 2026-05-01 14:34 | 49.05933 | -122.86560 | 19010 ft | 438 kts | 118° |
| 2026-05-01 14:34 | 49.04600 | -122.82385 | 19489 ft | 436 kts | 119° |
| 2026-05-01 14:35 | 49.03226 | -122.78287 | 19993 ft | 433 kts | 120° |
| 2026-05-01 14:35 | 49.01838 | -122.74219 | 20485 ft | 431 kts | 120° |
| 2026-05-01 14:35 | 49.00442 | -122.70145 | 21008 ft | 428 kts | 120° |
| 2026-05-01 14:35 | 48.99108 | -122.66256 | 21512 ft | 425 kts | 120° |
| 2026-05-01 14:36 | 48.97739 | -122.62267 | 22045 ft | 422 kts | 120° |
| 2026-05-01 14:36 | 48.96362 | -122.58249 | 22585 ft | 419 kts | 120° |
| 2026-05-01 14:36 | 48.95039 | -122.54383 | 23142 ft | 416 kts | 120° |
| 2026-05-01 14:36 | 48.93726 | -122.50538 | 23687 ft | 412 kts | 120° |
| 2026-05-01 14:37 | 48.92400 | -122.46645 | 24162 ft | 408 kts | 120° |
| 2026-05-01 14:37 | 48.91103 | -122.42827 | 24636 ft | 404 kts | 120° |
| 2026-05-01 14:37 | 48.89829 | -122.39073 | 25118 ft | 400 kts | 120° |
| 2026-05-01 14:37 | 48.88548 | -122.35286 | 25621 ft | 395 kts | 120° |
| 2026-05-01 14:38 | 48.87314 | -122.31633 | 26107 ft | 389 kts | 120° |
| 2026-05-01 14:38 | 48.86096 | -122.28018 | 26611 ft | 384 kts | 120° |
| 2026-05-01 14:38 | 48.84925 | -122.24404 | 27117 ft | 379 kts | 116° |
| 2026-05-01 14:38 | 48.83963 | -122.20675 | 27634 ft | 374 kts | 113° |
| 2026-05-01 14:39 | 48.83071 | -122.16933 | 27752 ft | 381 kts | 112° |
| 2026-05-01 14:39 | 48.82188 | -122.13165 | 27806 ft | 387 kts | 112° |
| 2026-05-01 14:39 | 48.81287 | -122.09300 | 27903 ft | 394 kts | 112° |
| 2026-05-01 14:39 | 48.80363 | -122.05343 | 27962 ft | 400 kts | 112° |
| 2026-05-01 14:40 | 48.79423 | -122.01320 | 28039 ft | 407 kts | 112° |
| 2026-05-01 14:40 | 48.77487 | -121.93081 | 28175 ft | 420 kts | 112° |
| 2026-05-01 14:41 | 48.75491 | -121.84640 | 28310 ft | 433 kts | 112° |
| 2026-05-01 14:41 | 48.73431 | -121.75991 | 28423 ft | 445 kts | 112° |
| 2026-05-01 14:42 | 48.71176 | -121.67176 | 28530 ft | 457 kts | 114° |
| 2026-05-01 14:42 | 48.68786 | -121.58133 | 28626 ft | 467 kts | 114° |
| 2026-05-01 14:43 | 48.66322 | -121.48904 | 28703 ft | 476 kts | 114° |
| 2026-05-01 14:43 | 48.63807 | -121.39540 | 28789 ft | 484 kts | 114° |
| 2026-05-01 14:44 | 48.61247 | -121.30055 | 28843 ft | 491 kts | 114° |
| 2026-05-01 14:44 | 48.57350 | -121.15703 | 28951 ft | 498 kts | 114° |
| 2026-05-01 14:45 | 48.53742 | -121.02467 | 29067 ft | 500 kts | 114° |
| 2026-05-01 14:45 | 48.52414 | -120.97600 | 29194 ft | 499 kts | 114° |
| 2026-05-01 14:46 | 48.51253 | -120.93346 | 29268 ft | 499 kts | 114° |
| 2026-05-01 14:46 | 48.47477 | -120.79529 | 29422 ft | 499 kts | 114° |
| 2026-05-01 14:47 | 48.44894 | -120.70100 | 29563 ft | 499 kts | 114° |
| 2026-05-01 14:48 | 48.41006 | -120.55917 | 29750 ft | 499 kts | 114° |
| 2026-05-01 14:48 | 48.36987 | -120.41310 | 30029 ft | 498 kts | 114° |
| 2026-05-01 14:49 | 48.34354 | -120.31759 | 30141 ft | 498 kts | 114° |
| 2026-05-01 14:49 | 48.31766 | -120.22388 | 30288 ft | 497 kts | 114° |
| 2026-05-01 14:50 | 48.26577 | -120.03605 | 30492 ft | 497 kts | 114° |
| 2026-05-01 14:51 | 48.21744 | -119.90350 | 30651 ft | 492 kts | 129° |
| 2026-05-01 14:52 | 48.17474 | -119.82364 | 30754 ft | 492 kts | 131° |
| 2026-05-01 14:52 | 48.15289 | -119.78428 | 30801 ft | 492 kts | 131° |
| 2026-05-01 14:52 | 48.11010 | -119.70561 | 30928 ft | 491 kts | 130° |
| 2026-05-01 14:53 | 48.08904 | -119.66587 | 30969 ft | 491 kts | 130° |
| 2026-05-01 14:53 | 48.04653 | -119.58536 | 31081 ft | 491 kts | 129° |
| 2026-05-01 14:54 | 48.00538 | -119.50708 | 31155 ft | 491 kts | 129° |
| 2026-05-01 14:54 | 47.96402 | -119.42676 | 31254 ft | 491 kts | 129° |
| 2026-05-01 14:55 | 47.92247 | -119.34558 | 31412 ft | 488 kts | 128° |
| 2026-05-01 14:55 | 47.90215 | -119.30586 | 31554 ft | 486 kts | 128° |
| 2026-05-01 14:55 | 47.88170 | -119.26589 | 31701 ft | 484 kts | 128° |
| 2026-05-01 14:55 | 47.86149 | -119.22644 | 31859 ft | 482 kts | 128° |
| 2026-05-01 14:56 | 47.84157 | -119.18758 | 32113 ft | 478 kts | 128° |
| 2026-05-01 14:56 | 47.82129 | -119.14806 | 32367 ft | 475 kts | 128° |
| 2026-05-01 14:56 | 47.80215 | -119.11082 | 32588 ft | 472 kts | 128° |
| 2026-05-01 14:56 | 47.78251 | -119.07267 | 32852 ft | 469 kts | 128° |
| 2026-05-01 14:57 | 47.76387 | -119.03653 | 33335 ft | 460 kts | 128° |
| 2026-05-01 14:57 | 47.72510 | -118.96146 | 34237 ft | 445 kts | 128° |
| 2026-05-01 14:57 | 47.70624 | -118.92480 | 34226 ft | 448 kts | 127° |
| 2026-05-01 14:58 | 47.67002 | -118.85145 | 34289 ft | 452 kts | 127° |
| 2026-05-01 14:58 | 47.63267 | -118.77477 | 34339 ft | 456 kts | 126° |
| 2026-05-01 14:59 | 47.61444 | -118.73725 | 34534 ft | 453 kts | 126° |
| 2026-05-01 14:59 | 47.59608 | -118.69942 | 34745 ft | 449 kts | 126° |
| 2026-05-01 14:59 | 47.57811 | -118.66239 | 34948 ft | 446 kts | 126° |
| 2026-05-01 14:59 | 47.56026 | -118.62561 | 35146 ft | 443 kts | 126° |
| 2026-05-01 15:00 | 47.52515 | -118.55336 | 35560 ft | 435 kts | 127° |
| 2026-05-01 15:00 | 47.50744 | -118.51762 | 35773 ft | 431 kts | 127° |
| 2026-05-01 15:00 | 47.48983 | -118.48234 | 35983 ft | 427 kts | 127° |
| 2026-05-01 15:01 | 47.47215 | -118.44704 | 36149 ft | 425 kts | 127° |
| 2026-05-01 15:01 | 47.45437 | -118.41163 | 35904 ft | 433 kts | 127° |
| 2026-05-01 15:01 | 47.43647 | -118.37603 | 35689 ft | 441 kts | 127° |
| 2026-05-01 15:01 | 47.41801 | -118.33934 | 35475 ft | 448 kts | 127° |
| 2026-05-01 15:02 | 47.39918 | -118.30196 | 35271 ft | 456 kts | 127° |
| 2026-05-01 15:02 | 47.36136 | -118.22693 | 35289 ft | 459 kts | 127° |
| 2026-05-01 15:03 | 47.32333 | -118.15151 | 35324 ft | 463 kts | 127° |
| 2026-05-01 15:03 | 47.28481 | -118.07510 | 35361 ft | 466 kts | 127° |
| 2026-05-01 15:04 | 47.24676 | -117.99962 | 35390 ft | 469 kts | 127° |
| 2026-05-01 15:04 | 47.20757 | -117.92186 | 35432 ft | 472 kts | 127° |
| 2026-05-01 15:05 | 47.16836 | -117.84400 | 35466 ft | 474 kts | 127° |
| 2026-05-01 15:05 | 47.12947 | -117.76674 | 35489 ft | 476 kts | 127° |
| 2026-05-01 15:06 | 47.09011 | -117.68856 | 35516 ft | 478 kts | 127° |
| 2026-05-01 15:06 | 47.05066 | -117.61019 | 35538 ft | 478 kts | 127° |
| 2026-05-01 15:07 | 47.01158 | -117.53261 | 35557 ft | 479 kts | 127° |
| 2026-05-01 15:07 | 46.97172 | -117.45357 | 35600 ft | 479 kts | 127° |
| 2026-05-01 15:08 | 46.93237 | -117.37564 | 35628 ft | 479 kts | 127° |
| 2026-05-01 15:08 | 46.89907 | -117.30980 | 35652 ft | 479 kts | 127° |
| 2026-05-01 15:09 | 46.85306 | -117.21901 | 35691 ft | 479 kts | 127° |
| 2026-05-01 15:09 | 46.81999 | -117.15390 | 35712 ft | 479 kts | 127° |
| 2026-05-01 15:10 | 46.78027 | -117.07587 | 35724 ft | 478 kts | 127° |
| 2026-05-01 15:10 | 46.72079 | -116.95936 | 35757 ft | 478 kts | 127° |
| 2026-05-01 15:11 | 46.66093 | -116.84252 | 35746 ft | 478 kts | 126° |
| 2026-05-01 15:12 | 46.62137 | -116.76546 | 35746 ft | 478 kts | 126° |
| 2026-05-01 15:12 | 46.56187 | -116.64981 | 35774 ft | 477 kts | 126° |
| 2026-05-01 15:14 | 46.46187 | -116.45585 | 35838 ft | 477 kts | 126° |
| 2026-05-01 15:14 | 46.40329 | -116.34241 | 35873 ft | 477 kts | 126° |
| 2026-05-01 15:15 | 46.33816 | -116.17766 | 35963 ft | 472 kts | 102° |
| 2026-05-01 15:16 | 46.31639 | -116.00353 | 36002 ft | 472 kts | 98° |
| 2026-05-01 15:18 | 46.29228 | -115.78718 | 36060 ft | 471 kts | 98° |
| 2026-05-01 15:18 | 46.28709 | -115.73988 | 36179 ft | 467 kts | 98° |
| 2026-05-01 15:19 | 46.27230 | -115.60434 | 36928 ft | 453 kts | 98° |
| 2026-05-01 15:19 | 46.26271 | -115.51802 | 37102 ft | 451 kts | 98° |
| 2026-05-01 15:19 | 46.25765 | -115.47487 | 37145 ft | 451 kts | 99° |
| 2026-05-01 15:20 | 46.24149 | -115.34537 | 37148 ft | 454 kts | 102° |
| 2026-05-01 15:21 | 46.22479 | -115.25714 | 37156 ft | 456 kts | 107° |
| 2026-05-01 15:21 | 46.20613 | -115.17555 | 37161 ft | 458 kts | 108° |
| 2026-05-01 15:22 | 46.17615 | -115.05637 | 37162 ft | 460 kts | 111° |
| 2026-05-01 15:22 | 46.15191 | -114.97409 | 37158 ft | 461 kts | 112° |
| 2026-05-01 15:23 | 46.12651 | -114.88953 | 37162 ft | 462 kts | 112° |
| 2026-05-01 15:23 | 46.10153 | -114.80672 | 37161 ft | 462 kts | 112° |
| 2026-05-01 15:24 | 46.07605 | -114.72231 | 37162 ft | 462 kts | 112° |
| 2026-05-01 15:24 | 46.05043 | -114.63741 | 37159 ft | 462 kts | 112° |
| 2026-05-01 15:25 | 46.02499 | -114.55311 | 37161 ft | 462 kts | 112° |
| 2026-05-01 15:25 | 45.99988 | -114.46999 | 37162 ft | 462 kts | 112° |
| 2026-05-01 15:26 | 45.97504 | -114.38784 | 37161 ft | 461 kts | 112° |
| 2026-05-01 15:26 | 45.94944 | -114.30318 | 37153 ft | 461 kts | 112° |
| 2026-05-01 15:27 | 45.92388 | -114.21871 | 37164 ft | 461 kts | 112° |
| 2026-05-01 15:28 | 45.88264 | -114.09474 | 37168 ft | 460 kts | 117° |
| 2026-05-01 15:28 | 45.85231 | -114.01420 | 37171 ft | 460 kts | 118° |
| 2026-05-01 15:29 | 45.80582 | -113.89660 | 37172 ft | 460 kts | 119° |
| 2026-05-01 15:30 | 45.74105 | -113.73948 | 37171 ft | 459 kts | 119° |
| 2026-05-01 15:31 | 45.64339 | -113.50513 | 37195 ft | 458 kts | 119° |
| 2026-05-01 15:32 | 45.57817 | -113.34943 | 37188 ft | 457 kts | 119° |
| 2026-05-01 15:34 | 45.48025 | -113.11659 | 37162 ft | 456 kts | 119° |